Time;durP1;ratioP1;P1;durP2;ratioP2;P2;SDS_P1;SDS_P2;PMS_P1;PMS_P2;Temp;Humidity;BMP_temperature;BMP_pressure;BME280_temperature;BME280_humidity;BME280_pressure;Samples;Min_cycle;Max_cycle;Signal;HPM_P1;HPM_P2
2022/10/21 00:00:59;;;;;;;20.45;11.20;;;;;;;;;;5039854;28;20035;-76
2022/10/21 00:03:44;;;;;;;19.58;11.68;;;;;;;;;;5041929;28;20040;-74
2022/10/21 00:06:30;;;;;;;17.30;11.23;;;;;;;;;;5018152;28;20040;-75
2022/10/21 00:09:15;;;;;;;19.67;11.23;;;;;;;;;;5040618;28;20033;-73
2022/10/21 00:12:00;;;;;;;16.55;10.57;;;;;;;;;;5022914;28;20410;-73
2022/10/21 00:14:45;;;;;;;21.45;12.68;;;;;;;;;;5035113;28;20040;-73
2022/10/21 00:17:33;;;;;;;17.92;10.63;;;;;;;;;;5036759;28;20460;-73
2022/10/21 00:20:18;;;;;;;21.98;12.00;;;;;;;;;;5029114;28;20391;-74
2022/10/21 00:23:03;;;;;;;22.25;11.30;;;;;;;;;;5035817;28;20025;-74
2022/10/21 00:25:48;;;;;;;19.33;12.20;;;;;;;;;;5040690;28;20051;-73
2022/10/21 00:28:34;;;;;;;20.27;10.73;;;;;;;;;;5027514;28;20094;-73
2022/10/21 00:31:19;;;;;;;20.75;9.88;;;;;;;;;;5032942;28;20126;-73
2022/10/21 00:34:04;;;;;;;19.27;10.25;;;;;;;;;;5018480;28;20029;-74
2022/10/21 00:36:49;;;;;;;17.70;10.63;;;;;;;;;;5023585;28;20128;-74
2022/10/21 00:39:35;;;;;;;17.75;10.30;;;;;;;;;;5027696;28;20025;-74
2022/10/21 00:42:21;;;;;;;22.38;9.70;;;;;;;;;;5035610;28;20021;-75
2022/10/21 00:45:07;;;;;;;16.17;10.20;;;;;;;;;;5021832;28;20596;-75
2022/10/21 00:48:02;;;;;;;16.00;10.80;;;;;;;;;;5038555;28;20399;-76
2022/10/21 00:50:58;;;;;;;18.05;10.43;;;;;;;;;;5026197;28;20553;-74
2022/10/21 00:53:45;;;;;;;19.60;11.18;;;;;;;;;;5023523;28;20017;-76
2022/10/21 00:56:32;;;;;;;16.67;9.55;;;;;;;;;;5035920;28;20039;-75
2022/10/21 00:59:17;;;;;;;17.25;10.75;;;;;;;;;;5022476;28;20106;-79
2022/10/21 01:02:03;;;;;;;20.92;10.50;;;;;;;;;;5034963;28;20029;-77
2022/10/21 01:04:51;;;;;;;15.60;10.13;;;;;;;;;;5034122;28;20103;-74
2022/10/21 01:07:36;;;;;;;19.02;10.95;;;;;;;;;;5019215;28;20045;-75
2022/10/21 01:10:22;;;;;;;18.60;9.95;;;;;;;;;;5030444;28;21265;-75
2022/10/21 01:13:13;;;;;;;14.27;10.15;;;;;;;;;;5034928;28;20036;-75
2022/10/21 01:16:17;;;;;;;15.05;9.30;;;;;;;;;;5019995;28;20120;-75
2022/10/21 01:19:02;;;;;;;16.27;9.27;;;;;;;;;;5041059;28;20027;-76
2022/10/21 01:22:11;;;;;;;14.60;9.55;;;;;;;;;;5030935;28;20032;-82
2022/10/21 01:25:08;;;;;;;19.63;9.02;;;;;;;;;;5022215;28;20052;-80
2022/10/21 01:28:01;;;;;;;16.40;8.95;;;;;;;;;;5035017;28;20029;-78
2022/10/21 01:30:52;;;;;;;14.98;9.35;;;;;;;;;;5019860;28;20098;-81
2022/10/21 01:33:40;;;;;;;16.15;8.95;;;;;;;;;;5022851;28;20123;-79
2022/10/21 01:36:28;;;;;;;15.02;8.75;;;;;;;;;;4992325;28;20042;-81
2022/10/21 01:39:13;;;;;;;17.88;9.52;;;;;;;;;;4992141;28;20041;-71
2022/10/21 01:42:13;;;;;;;16.80;8.32;;;;;;;;;;4991321;28;20459;-72
2022/10/21 01:45:06;;;;;;;17.35;9.48;;;;;;;;;;5005067;28;20046;-71
2022/10/21 01:47:53;;;;;;;18.77;9.13;;;;;;;;;;4991658;28;20120;-72
2022/10/21 01:50:44;;;;;;;20.00;10.07;;;;;;;;;;4992884;28;20123;-71
2022/10/21 01:53:31;;;;;;;14.15;8.90;;;;;;;;;;4993923;28;20026;-71
2022/10/21 01:56:17;;;;;;;14.82;8.65;;;;;;;;;;4986605;28;20121;-80
2022/10/21 01:59:03;;;;;;;16.48;8.63;;;;;;;;;;4989583;28;20026;-73
2022/10/21 02:01:49;;;;;;;16.63;8.73;;;;;;;;;;4978141;28;20216;-73
2022/10/21 02:04:35;;;;;;;21.40;9.35;;;;;;;;;;4993424;28;20026;-74
2022/10/21 02:07:20;;;;;;;17.23;8.15;;;;;;;;;;5023845;28;20056;-73
2022/10/21 02:10:06;;;;;;;16.25;8.70;;;;;;;;;;5021570;28;20529;-72
2022/10/21 02:12:52;;;;;;;13.15;7.93;;;;;;;;;;5022162;28;20124;-75
2022/10/21 02:15:38;;;;;;;15.57;8.43;;;;;;;;;;5034059;28;20120;-74
2022/10/21 02:18:24;;;;;;;17.33;8.13;;;;;;;;;;5031573;28;20029;-75
2022/10/21 02:21:13;;;;;;;16.17;8.90;;;;;;;;;;5021611;28;20487;-76
2022/10/21 02:24:03;;;;;;;17.63;9.27;;;;;;;;;;5017229;28;20119;-76
2022/10/21 02:26:49;;;;;;;19.95;8.57;;;;;;;;;;5019597;28;20099;-76
2022/10/21 02:29:38;;;;;;;21.65;7.97;;;;;;;;;;5035165;28;20499;-75
2022/10/21 02:32:39;;;;;;;21.83;9.18;;;;;;;;;;5035184;28;20445;-72
2022/10/21 02:35:24;;;;;;;17.50;8.73;;;;;;;;;;5030641;28;20052;-79
2022/10/21 02:38:30;;;;;;;16.35;7.90;;;;;;;;;;5019848;28;20164;-79
2022/10/21 02:41:17;;;;;;;14.27;7.68;;;;;;;;;;5045026;28;20036;-81
2022/10/21 02:44:03;;;;;;;20.52;7.90;;;;;;;;;;5020404;28;20055;-80
2022/10/21 02:46:48;;;;;;;15.07;9.00;;;;;;;;;;5032431;28;20033;-79
2022/10/21 02:49:34;;;;;;;11.95;7.55;;;;;;;;;;5021375;28;20029;-75
2022/10/21 02:52:19;;;;;;;13.85;7.22;;;;;;;;;;5035582;28;20511;-75
2022/10/21 02:55:05;;;;;;;14.90;7.70;;;;;;;;;;5018206;28;20083;-74
2022/10/21 02:57:50;;;;;;;15.30;7.80;;;;;;;;;;5031407;28;20127;-74
2022/10/21 03:00:35;;;;;;;18.83;8.43;;;;;;;;;;5020002;28;20061;-73
2022/10/21 03:03:20;;;;;;;12.38;8.07;;;;;;;;;;5030885;28;20028;-76
2022/10/21 03:06:06;;;;;;;21.88;7.88;;;;;;;;;;5035250;28;20032;-75
2022/10/21 03:08:51;;;;;;;12.95;7.10;;;;;;;;;;5033901;28;20427;-73
2022/10/21 03:11:36;;;;;;;16.48;9.32;;;;;;;;;;5016873;28;20032;-71
2022/10/21 03:14:21;;;;;;;24.63;8.57;;;;;;;;;;5034255;28;20078;-72
2022/10/21 03:17:07;;;;;;;15.27;8.07;;;;;;;;;;5015618;28;20036;-72
2022/10/21 03:19:52;;;;;;;15.48;8.68;;;;;;;;;;5033339;28;20136;-71
2022/10/21 03:22:37;;;;;;;14.45;8.07;;;;;;;;;;5032333;28;20037;-71
2022/10/21 03:25:22;;;;;;;13.15;7.75;;;;;;;;;;5032028;28;20029;-71
2022/10/21 03:28:08;;;;;;;15.05;8.25;;;;;;;;;;5031219;28;20082;-74
2022/10/21 03:30:55;;;;;;;13.27;7.35;;;;;;;;;;5016974;28;20028;-74
2022/10/21 03:33:40;;;;;;;15.70;9.20;;;;;;;;;;5017160;28;20039;-75
2022/10/21 03:36:25;;;;;;;18.02;8.85;;;;;;;;;;5031616;28;20111;-74
2022/10/21 03:39:11;;;;;;;13.18;7.68;;;;;;;;;;5018076;28;20315;-75
2022/10/21 03:41:56;;;;;;;13.63;8.55;;;;;;;;;;5016507;28;20021;-75
2022/10/21 03:44:41;;;;;;;17.90;10.23;;;;;;;;;;5034722;28;20569;-73
2022/10/21 03:47:26;;;;;;;13.52;8.77;;;;;;;;;;5032132;28;20029;-75
2022/10/21 03:50:12;;;;;;;18.60;10.10;;;;;;;;;;5020448;28;20032;-73
2022/10/21 03:52:58;;;;;;;19.73;9.32;;;;;;;;;;5032021;28;20170;-74
2022/10/21 03:55:43;;;;;;;17.58;8.55;;;;;;;;;;5016705;28;20025;-74
2022/10/21 03:58:29;;;;;;;18.13;8.93;;;;;;;;;;5029994;28;20032;-73
2022/10/21 04:01:14;;;;;;;17.33;9.98;;;;;;;;;;5031230;28;20058;-73
2022/10/21 04:03:59;;;;;;;15.40;9.48;;;;;;;;;;5030261;28;20068;-76
2022/10/21 04:06:44;;;;;;;17.35;9.98;;;;;;;;;;5031934;28;20124;-71
2022/10/21 04:09:30;;;;;;;13.27;9.63;;;;;;;;;;5026519;28;20026;-71
2022/10/21 04:12:15;;;;;;;21.02;10.15;;;;;;;;;;5039340;28;20032;-71
2022/10/21 04:15:00;;;;;;;13.02;8.20;;;;;;;;;;5040037;28;20037;-72
2022/10/21 04:17:45;;;;;;;15.85;10.48;;;;;;;;;;5035679;28;20755;-71
2022/10/21 04:20:31;;;;;;;15.43;9.07;;;;;;;;;;5027773;28;20055;-71
2022/10/21 04:23:16;;;;;;;17.80;8.95;;;;;;;;;;5043290;28;20040;-75
2022/10/21 04:26:02;;;;;;;18.40;9.85;;;;;;;;;;5032869;28;20061;-76
2022/10/21 04:28:47;;;;;;;15.85;8.68;;;;;;;;;;5039475;28;20037;-76
2022/10/21 04:31:33;;;;;;;16.40;9.10;;;;;;;;;;5034818;28;20029;-76
2022/10/21 04:34:18;;;;;;;19.80;9.15;;;;;;;;;;5020402;28;20040;-77
2022/10/21 04:37:03;;;;;;;13.68;8.45;;;;;;;;;;5039430;28;20494;-75
2022/10/21 04:39:48;;;;;;;14.88;8.88;;;;;;;;;;5032323;28;20021;-74
2022/10/21 04:42:34;;;;;;;16.27;9.55;;;;;;;;;;5027120;28;20551;-78
2022/10/21 04:45:19;;;;;;;12.50;7.25;;;;;;;;;;5018871;28;20469;-70
2022/10/21 04:48:05;;;;;;;17.17;8.98;;;;;;;;;;5018757;28;20040;-70
2022/10/21 04:50:51;;;;;;;17.98;9.55;;;;;;;;;;5037257;28;20029;-72
2022/10/21 04:53:36;;;;;;;16.67;7.88;;;;;;;;;;5034124;28;20482;-71
2022/10/21 04:56:21;;;;;;;17.85;8.20;;;;;;;;;;5025654;28;20079;-73
2022/10/21 04:59:07;;;;;;;16.38;8.45;;;;;;;;;;5022771;28;20753;-73
2022/10/21 05:01:52;;;;;;;17.83;9.60;;;;;;;;;;5033318;28;20033;-74
2022/10/21 05:04:37;;;;;;;17.77;9.82;;;;;;;;;;5027835;28;20037;-73
2022/10/21 05:07:22;;;;;;;24.20;8.43;;;;;;;;;;5036175;28;20076;-73
2022/10/21 05:10:08;;;;;;;15.43;8.95;;;;;;;;;;5022596;28;21164;-76
2022/10/21 05:12:53;;;;;;;18.77;8.25;;;;;;;;;;5008179;28;20033;-74
2022/10/21 05:15:38;;;;;;;15.27;8.63;;;;;;;;;;5031870;28;20037;-74
2022/10/21 05:18:24;;;;;;;17.23;8.73;;;;;;;;;;5033636;28;20104;-74
2022/10/21 05:21:09;;;;;;;20.60;8.85;;;;;;;;;;5015335;28;20483;-75
2022/10/21 05:23:54;;;;;;;16.65;9.55;;;;;;;;;;5031518;28;20025;-73
2022/10/21 05:26:40;;;;;;;13.45;7.13;;;;;;;;;;5035846;28;20033;-74
2022/10/21 05:29:25;;;;;;;15.90;7.97;;;;;;;;;;5032684;28;20464;-74
2022/10/21 05:32:10;;;;;;;14.77;8.45;;;;;;;;;;5018346;28;20364;-74
2022/10/21 05:34:55;;;;;;;14.50;8.70;;;;;;;;;;5036832;28;20040;-75
2022/10/21 05:37:40;;;;;;;16.30;8.90;;;;;;;;;;5021691;28;20518;-74
2022/10/21 05:40:26;;;;;;;13.52;8.10;;;;;;;;;;5045007;28;20048;-74
2022/10/21 05:43:11;;;;;;;13.05;8.25;;;;;;;;;;5042831;28;20028;-75
2022/10/21 05:45:56;;;;;;;16.50;7.97;;;;;;;;;;5032282;28;20032;-74
2022/10/21 05:48:41;;;;;;;16.95;6.68;;;;;;;;;;5040384;28;20390;-75
2022/10/21 05:51:27;;;;;;;19.73;7.45;;;;;;;;;;5040999;28;20391;-73
2022/10/21 05:54:12;;;;;;;17.88;6.82;;;;;;;;;;5022072;28;20043;-77
2022/10/21 05:56:58;;;;;;;14.18;7.88;;;;;;;;;;5035044;28;20029;-76
2022/10/21 05:59:43;;;;;;;16.33;6.28;;;;;;;;;;5014427;28;20025;-77
2022/10/21 06:02:28;;;;;;;14.98;6.50;;;;;;;;;;5035386;28;20530;-79
2022/10/21 06:05:13;;;;;;;16.45;6.78;;;;;;;;;;5039773;28;20116;-79
2022/10/21 06:07:58;;;;;;;15.13;6.57;;;;;;;;;;5035783;28;20033;-76
2022/10/21 06:10:44;;;;;;;14.13;5.53;;;;;;;;;;5034096;28;20029;-80
2022/10/21 06:13:29;;;;;;;13.73;6.25;;;;;;;;;;5028434;28;20055;-75
2022/10/21 06:16:15;;;;;;;14.20;5.75;;;;;;;;;;5032105;28;20329;-78
2022/10/21 06:19:01;;;;;;;12.00;6.68;;;;;;;;;;5018029;28;20068;-77
2022/10/21 06:21:46;;;;;;;15.15;7.00;;;;;;;;;;5032987;28;20167;-78
2022/10/21 06:24:31;;;;;;;11.48;6.07;;;;;;;;;;5019477;28;20037;-79
2022/10/21 06:27:17;;;;;;;18.35;6.90;;;;;;;;;;5018015;28;20032;-79
2022/10/21 06:30:02;;;;;;;15.82;6.50;;;;;;;;;;5023901;28;20392;-81
2022/10/21 06:32:47;;;;;;;15.95;6.07;;;;;;;;;;5019170;28;20033;-77
2022/10/21 06:35:33;;;;;;;12.32;5.72;;;;;;;;;;5035244;28;20039;-83
2022/10/21 06:38:18;;;;;;;15.52;5.20;;;;;;;;;;5014954;28;20095;-79
2022/10/21 06:41:07;;;;;;;13.70;5.75;;;;;;;;;;5036132;28;20040;-78
2022/10/21 06:43:53;;;;;;;11.82;6.30;;;;;;;;;;5031460;28;20037;-77
2022/10/21 06:46:38;;;;;;;13.05;5.10;;;;;;;;;;5014770;28;20036;-81
2022/10/21 06:49:23;;;;;;;12.40;5.55;;;;;;;;;;5017750;28;20427;-75
2022/10/21 06:52:08;;;;;;;14.57;4.70;;;;;;;;;;5022326;28;20028;-78
2022/10/21 06:54:54;;;;;;;13.07;5.25;;;;;;;;;;5030478;28;20477;-81
2022/10/21 06:57:39;;;;;;;16.30;6.78;;;;;;;;;;5020751;28;20040;-79
2022/10/21 07:00:24;;;;;;;14.75;5.78;;;;;;;;;;5023340;28;20119;-79
2022/10/21 07:03:09;;;;;;;14.38;6.10;;;;;;;;;;5024538;28;20078;-79
2022/10/21 07:05:58;;;;;;;17.05;6.43;;;;;;;;;;5018003;28;20075;-78
2022/10/21 07:08:44;;;;;;;13.60;5.00;;;;;;;;;;5019113;28;20063;-76
2022/10/21 07:11:29;;;;;;;16.52;5.88;;;;;;;;;;5034008;28;20040;-79
2022/10/21 07:14:14;;;;;;;12.00;4.43;;;;;;;;;;5031450;28;20090;-77
2022/10/21 07:17:00;;;;;;;16.17;5.85;;;;;;;;;;5018260;28;20464;-78
2022/10/21 07:19:45;;;;;;;17.25;4.97;;;;;;;;;;5031070;28;20037;-80
2022/10/21 07:22:30;;;;;;;18.02;5.20;;;;;;;;;;5020378;28;20024;-79
2022/10/21 07:25:16;;;;;;;15.90;5.00;;;;;;;;;;5010867;28;20040;-79
2022/10/21 07:28:01;;;;;;;11.65;5.43;;;;;;;;;;5030639;28;20045;-75
2022/10/21 07:30:47;;;;;;;15.98;6.38;;;;;;;;;;5021448;28;20368;-73
2022/10/21 07:33:33;;;;;;;16.20;5.63;;;;;;;;;;5020649;28;20029;-77
2022/10/21 07:36:19;;;;;;;15.48;4.97;;;;;;;;;;5044309;28;20060;-75
2022/10/21 07:39:10;;;;;;;13.65;4.97;;;;;;;;;;5031137;28;20506;-75
2022/10/21 07:41:56;;;;;;;12.25;5.10;;;;;;;;;;5034413;28;20037;-74
2022/10/21 07:44:41;;;;;;;14.02;5.13;;;;;;;;;;5037387;28;20353;-75
2022/10/21 07:47:27;;;;;;;15.55;5.32;;;;;;;;;;5029984;28;20033;-79
2022/10/21 07:50:12;;;;;;;12.55;6.40;;;;;;;;;;5034088;28;20034;-78
2022/10/21 07:52:57;;;;;;;17.30;5.95;;;;;;;;;;5032544;28;20059;-75
2022/10/21 07:55:43;;;;;;;18.02;6.53;;;;;;;;;;5032500;28;20387;-75
2022/10/21 07:58:29;;;;;;;20.88;5.53;;;;;;;;;;5014610;28;20020;-74
2022/10/21 08:01:14;;;;;;;15.10;5.35;;;;;;;;;;5029641;28;20048;-73
2022/10/21 08:04:00;;;;;;;14.60;5.10;;;;;;;;;;5034649;28;20622;-71
2022/10/21 08:06:46;;;;;;;10.70;5.45;;;;;;;;;;5035649;28;20076;-75
2022/10/21 08:09:32;;;;;;;15.02;6.53;;;;;;;;;;5031487;28;20472;-75
2022/10/21 08:12:17;;;;;;;13.30;5.18;;;;;;;;;;5034704;28;20423;-79
2022/10/21 08:15:02;;;;;;;15.75;4.75;;;;;;;;;;5033700;28;20033;-77
2022/10/21 08:17:48;;;;;;;10.38;4.60;;;;;;;;;;5036295;28;20032;-76
2022/10/21 08:20:33;;;;;;;17.73;5.70;;;;;;;;;;5023855;28;20104;-76
2022/10/21 08:23:19;;;;;;;20.23;5.40;;;;;;;;;;5039172;28;20381;-73
2022/10/21 08:26:06;;;;;;;12.68;5.47;;;;;;;;;;5029902;28;20028;-75
2022/10/21 08:28:51;;;;;;;15.25;5.55;;;;;;;;;;5026515;28;20039;-77
2022/10/21 08:31:37;;;;;;;15.70;5.63;;;;;;;;;;5015971;28;20091;-76
2022/10/21 08:34:23;;;;;;;16.77;5.47;;;;;;;;;;5016478;28;20545;-77
2022/10/21 08:37:08;;;;;;;20.30;6.38;;;;;;;;;;5021248;28;20021;-77
2022/10/21 08:39:53;;;;;;;13.38;4.85;;;;;;;;;;5031194;28;20027;-74
2022/10/21 08:42:41;;;;;;;13.35;5.50;;;;;;;;;;5019849;28;20021;-73
2022/10/21 08:45:30;;;;;;;10.52;4.57;;;;;;;;;;5019426;28;20399;-74
2022/10/21 08:48:25;;;;;;;15.27;4.82;;;;;;;;;;5030355;28;20032;-73
2022/10/21 08:51:21;;;;;;;16.27;6.00;;;;;;;;;;5030452;28;20039;-74
2022/10/21 08:54:17;;;;;;;17.35;5.75;;;;;;;;;;5017884;28;20040;-74
2022/10/21 08:57:02;;;;;;;16.15;5.22;;;;;;;;;;5019568;28;20025;-74
2022/10/21 08:59:48;;;;;;;15.40;5.65;;;;;;;;;;5032343;28;20403;-72
2022/10/21 09:02:42;;;;;;;12.13;6.07;;;;;;;;;;5017522;28;20082;-78
2022/10/21 09:05:31;;;;;;;12.52;6.07;;;;;;;;;;5018328;28;20037;-76
2022/10/21 09:08:16;;;;;;;;;;;;;;;;;;5045653;28;20072;-79
2022/10/21 09:11:11;;;;;;;15.75;5.65;;;;;;;;;;5030509;28;19920;-76
2022/10/21 09:14:10;;;;;;;10.13;5.00;;;;;;;;;;5025986;28;20123;-76
2022/10/21 09:17:01;;;;;;;20.95;7.00;;;;;;;;;;5021620;28;20039;-75
2022/10/21 09:19:47;;;;;;;14.00;5.15;;;;;;;;;;5019769;28;20041;-77
2022/10/21 09:22:51;;;;;;;15.27;5.47;;;;;;;;;;5044555;28;20566;-77
2022/10/21 09:25:44;;;;;;;14.68;5.22;;;;;;;;;;5031072;28;20070;-75
2022/10/21 09:28:29;;;;;;;14.70;6.00;;;;;;;;;;5036124;28;20028;-74
2022/10/21 09:31:16;;;;;;;20.48;6.25;;;;;;;;;;5036095;28;20112;-74
2022/10/21 09:34:02;;;;;;;14.65;7.03;;;;;;;;;;5020381;28;20479;-75
2022/10/21 09:36:48;;;;;;;13.93;4.60;;;;;;;;;;5043676;28;20021;-73
2022/10/21 09:39:44;;;;;;;14.00;5.45;;;;;;;;;;5035961;28;20031;-74
2022/10/21 09:42:29;;;;;;;11.50;5.10;;;;;;;;;;5018983;28;20025;-72
2022/10/21 09:45:21;;;;;;;14.10;5.30;;;;;;;;;;5016832;28;20030;-72
2022/10/21 09:48:15;;;;;;;8.40;4.25;;;;;;;;;;5037189;28;20037;-73
2022/10/21 09:51:08;;;;;;;10.35;4.22;;;;;;;;;;5029112;28;20036;-74
2022/10/21 09:54:01;;;;;;;8.48;3.40;;;;;;;;;;5016169;28;20056;-76
2022/10/21 09:56:49;;;;;;;13.43;5.90;;;;;;;;;;5033196;28;20040;-76
2022/10/21 09:59:36;;;;;;;11.80;5.97;;;;;;;;;;5020591;28;20532;-77
2022/10/21 10:02:31;;;;;;;9.45;5.10;;;;;;;;;;5021663;28;20025;-78
2022/10/21 10:05:37;;;;;;;15.05;4.38;;;;;;;;;;5017236;28;20040;-77
2022/10/21 10:08:32;;;;;;;11.15;3.95;;;;;;;;;;5022076;28;20037;-77
2022/10/21 10:11:20;;;;;;;8.50;3.28;;;;;;;;;;5047027;28;20484;-76
2022/10/21 10:14:26;;;;;;;11.25;3.42;;;;;;;;;;5038320;28;20033;-80
2022/10/21 10:17:30;;;;;;;10.45;4.28;;;;;;;;;;5032488;28;20124;-75
2022/10/21 10:20:17;;;;;;;7.55;3.72;;;;;;;;;;5032562;28;20098;-74
2022/10/21 10:23:07;;;;;;;11.25;3.13;;;;;;;;;;5034310;28;20541;-74
2022/10/21 10:25:53;;;;;;;7.18;3.80;;;;;;;;;;5024763;28;20040;-74
2022/10/21 10:28:38;;;;;;;13.48;4.28;;;;;;;;;;5034369;28;20037;-79
2022/10/21 10:31:29;;;;;;;14.18;3.58;;;;;;;;;;5017050;28;20028;-79
2022/10/21 10:34:40;;;;;;;8.93;3.00;;;;;;;;;;5030693;28;20374;-80
2022/10/21 10:37:27;;;;;;;11.25;4.53;;;;;;;;;;4990673;28;20535;-82
2022/10/21 10:40:19;;;;;;;13.05;3.35;;;;;;;;;;5034722;28;20033;-80
2022/10/21 10:43:06;;;;;;;8.43;2.75;;;;;;;;;;5035459;28;20585;-76
2022/10/21 10:45:55;;;;;;;10.90;3.40;;;;;;;;;;5033615;28;20060;-79
2022/10/21 10:48:41;;;;;;;6.05;3.70;;;;;;;;;;5015614;28;20503;-78
2022/10/21 10:51:28;;;;;;;9.25;3.15;;;;;;;;;;5025824;28;20029;-78
2022/10/21 10:54:18;;;;;;;8.90;3.53;;;;;;;;;;5032808;28;20029;-77
2022/10/21 10:57:15;;;;;;;4.43;2.47;;;;;;;;;;5034729;28;20098;-77
2022/10/21 11:00:15;;;;;;;12.93;3.67;;;;;;;;;;5032920;28;20036;-77
2022/10/21 11:03:04;;;;;;;6.53;3.17;;;;;;;;;;5032575;28;20040;-76
2022/10/21 11:05:52;;;;;;;8.20;2.97;;;;;;;;;;5033027;28;20036;-80
2022/10/21 11:08:40;;;;;;;7.32;3.25;;;;;;;;;;5031204;28;20140;-75
2022/10/21 11:11:28;;;;;;;9.40;2.95;;;;;;;;;;5035245;28;20103;-77
2022/10/21 11:14:16;;;;;;;7.63;3.35;;;;;;;;;;5017786;28;20115;-75
2022/10/21 11:17:15;;;;;;;8.50;3.50;;;;;;;;;;5025752;28;20375;-76
2022/10/21 11:20:13;;;;;;;8.45;3.78;;;;;;;;;;5028295;28;20056;-76
2022/10/21 11:23:17;;;;;;;5.72;2.88;;;;;;;;;;5033241;28;20029;-77
2022/10/21 11:26:08;;;;;;;6.25;2.67;;;;;;;;;;5035896;28;20045;-74
2022/10/21 11:29:01;;;;;;;5.97;2.53;;;;;;;;;;5035840;28;20109;-75
2022/10/21 11:31:59;;;;;;;9.93;2.78;;;;;;;;;;5020502;28;20036;-76
2022/10/21 11:34:44;;;;;;;7.53;2.63;;;;;;;;;;5019103;28;20025;-75
2022/10/21 11:37:30;;;;;;;6.85;2.53;;;;;;;;;;5028832;28;20032;-75
2022/10/21 11:40:23;;;;;;;9.43;2.83;;;;;;;;;;5022141;28;20048;-75
2022/10/21 11:43:12;;;;;;;7.22;2.67;;;;;;;;;;5020911;28;20045;-79
2022/10/21 11:46:04;;;;;;;5.70;2.53;;;;;;;;;;5029714;28;20045;-76
2022/10/21 11:49:02;;;;;;;4.70;1.85;;;;;;;;;;5019322;28;20029;-75
2022/10/21 11:52:11;;;;;;;7.10;2.30;;;;;;;;;;5017447;28;20174;-76
2022/10/21 11:54:56;;;;;;;4.87;2.10;;;;;;;;;;4950769;28;20047;-73
2022/10/21 11:57:59;;;;;;;4.03;1.40;;;;;;;;;;4949275;28;20317;-75
2022/10/21 12:00:52;;;;;;;5.95;1.83;;;;;;;;;;4956875;28;20405;-75
2022/10/21 12:03:49;;;;;;;4.90;2.05;;;;;;;;;;4944150;28;20050;-77
2022/10/21 12:06:37;;;;;;;8.57;2.63;;;;;;;;;;4946977;28;20035;-75
2022/10/21 12:09:27;;;;;;;8.95;2.67;;;;;;;;;;4950237;28;20027;-75
2022/10/21 12:12:15;;;;;;;5.78;2.35;;;;;;;;;;4954015;28;20054;-75
2022/10/21 12:15:02;;;;;;;8.02;2.10;;;;;;;;;;4952932;28;20513;-75
2022/10/21 12:17:48;;;;;;;6.75;1.73;;;;;;;;;;4960421;28;20027;-80
2022/10/21 12:20:33;;;;;;;3.40;1.98;;;;;;;;;;4951710;28;20497;-76
2022/10/21 12:23:20;;;;;;;8.38;1.58;;;;;;;;;;4938896;28;20513;-77
2022/10/21 12:26:12;;;;;;;16.55;2.22;;;;;;;;;;4967244;28;20445;-77
2022/10/21 12:29:01;;;;;;;5.78;1.52;;;;;;;;;;4968994;28;20038;-79
2022/10/21 12:32:07;;;;;;;5.78;1.83;;;;;;;;;;4982915;28;20045;-75
2022/10/21 12:34:52;;;;;;;5.00;1.02;;;;;;;;;;5041950;28;20120;-78
2022/10/21 12:37:47;;;;;;;3.20;1.63;;;;;;;;;;5015470;28;20552;-77
2022/10/21 12:40:34;;;;;;;5.85;1.17;;;;;;;;;;5023891;28;20036;-80
2022/10/21 12:43:22;;;;;;;4.00;1.65;;;;;;;;;;5047164;28;20025;-78
2022/10/21 12:46:08;;;;;;;2.88;1.35;;;;;;;;;;5023034;28;20032;-78
2022/10/21 12:48:54;;;;;;;7.20;1.70;;;;;;;;;;5033866;28;20055;-78
2022/10/21 12:51:46;;;;;;;3.60;1.20;;;;;;;;;;5033944;28;20061;-82
2022/10/21 12:54:57;;;;;;;3.28;1.10;;;;;;;;;;5032723;28;20086;-79
2022/10/21 12:57:43;;;;;;;3.35;1.10;;;;;;;;;;5032272;28;20033;-78
2022/10/21 13:00:28;;;;;;;10.63;5.28;;;;;;;;;;5033387;28;20068;-75
2022/10/21 13:03:32;;;;;;;3.70;1.60;;;;;;;;;;5032016;28;20646;-75
2022/10/21 13:06:37;;;;;;;2.67;1.60;;;;;;;;;;5030667;28;20370;-76
2022/10/21 13:09:40;;;;;;;2.55;1.40;;;;;;;;;;5037647;28;20322;-76
2022/10/21 13:12:28;;;;;;;4.03;1.55;;;;;;;;;;5035909;28;20037;-76
2022/10/21 13:15:19;;;;;;;5.45;1.80;;;;;;;;;;5033621;28;20502;-78
2022/10/21 13:18:06;;;;;;;6.93;2.72;;;;;;;;;;5018046;28;20066;-73
2022/10/21 13:20:58;;;;;;;5.18;1.45;;;;;;;;;;5031478;28;20170;-76
2022/10/21 13:23:44;;;;;;;4.53;2.08;;;;;;;;;;5021977;28;20125;-76
2022/10/21 13:26:29;;;;;;;6.78;1.45;;;;;;;;;;5022799;28;20052;-75
2022/10/21 13:29:22;;;;;;;9.68;2.53;;;;;;;;;;5016547;28;20091;-77
2022/10/21 13:32:10;;;;;;;3.75;1.20;;;;;;;;;;5029329;28;20036;-77
2022/10/21 13:34:55;;;;;;;4.30;1.42;;;;;;;;;;5020971;28;20353;-77
2022/10/21 13:37:48;;;;;;;4.35;1.40;;;;;;;;;;5018551;28;20067;-79
2022/10/21 13:40:45;;;;;;;2.60;1.30;;;;;;;;;;5018286;28;20911;-80
2022/10/21 13:43:37;;;;;;;8.95;2.05;;;;;;;;;;5015205;28;20028;-76
2022/10/21 13:46:25;;;;;;;7.95;2.10;;;;;;;;;;5018697;28;20086;-76
2022/10/21 13:49:25;;;;;;;2.13;1.25;;;;;;;;;;5016350;28;22330;-79
2022/10/21 13:52:10;;;;;;;3.80;1.40;;;;;;;;;;5032405;28;20551;-76
2022/10/21 13:54:56;;;;;;;1.88;1.23;;;;;;;;;;5020254;28;20052;-75
2022/10/21 13:57:45;;;;;;;6.28;2.00;;;;;;;;;;5035668;28;20111;-75
2022/10/21 14:00:31;;;;;;;4.10;1.20;;;;;;;;;;5033889;28;20086;-76
2022/10/21 14:03:17;;;;;;;6.07;2.63;;;;;;;;;;5030506;28;20033;-79
2022/10/21 14:06:04;;;;;;;3.75;1.70;;;;;;;;;;5029694;28;20475;-79
2022/10/21 14:08:49;;;;;;;5.68;2.30;;;;;;;;;;5035716;28;20021;-76
2022/10/21 14:11:40;;;;;;;6.60;2.03;;;;;;;;;;5023253;28;20040;-74
2022/10/21 14:14:26;;;;;;;6.50;1.60;;;;;;;;;;5027820;28;20535;-79
2022/10/21 14:17:16;;;;;;;3.20;1.30;;;;;;;;;;5025186;28;20435;-82
2022/10/21 14:20:05;;;;;;;2.33;1.52;;;;;;;;;;5015429;28;20063;-85
2022/10/21 14:22:51;;;;;;;3.92;1.40;;;;;;;;;;5022513;28;20029;-84
2022/10/21 14:25:36;;;;;;;5.53;1.67;;;;;;;;;;5023803;28;20033;-86
2022/10/21 14:28:22;;;;;;;3.80;1.13;;;;;;;;;;5039930;28;20625;-90
2022/10/21 14:31:10;;;;;;;4.93;1.70;;;;;;;;;;5028776;28;20518;-80
2022/10/21 14:33:56;;;;;;;4.07;0.88;;;;;;;;;;5037798;28;20021;-77
2022/10/21 14:37:00;;;;;;;3.63;1.73;;;;;;;;;;5025128;28;20108;-79
2022/10/21 14:39:46;;;;;;;3.55;1.60;;;;;;;;;;5036534;28;20103;-78
2022/10/21 14:42:33;;;;;;;3.17;1.30;;;;;;;;;;5033730;28;20037;-75
2022/10/21 14:45:26;;;;;;;5.25;1.77;;;;;;;;;;5001804;28;20116;-78
2022/10/21 14:48:24;;;;;;;4.50;1.60;;;;;;;;;;5037291;28;20036;-77
2022/10/21 14:51:11;;;;;;;3.85;1.40;;;;;;;;;;5028824;28;20056;-76
2022/10/21 14:54:04;;;;;;;8.68;2.72;;;;;;;;;;5021448;28;20155;-77
2022/10/21 14:56:49;;;;;;;4.93;1.73;;;;;;;;;;5015255;28;20079;-79
2022/10/21 14:59:38;;;;;;;5.40;2.35;;;;;;;;;;5029278;28;20036;-74
2022/10/21 15:02:32;;;;;;;6.93;1.95;;;;;;;;;;5019883;28;20025;-75
2022/10/21 15:05:33;;;;;;;7.13;2.22;;;;;;;;;;5019106;28;20444;-79
2022/10/21 15:08:18;;;;;;;6.18;2.30;;;;;;;;;;5016557;28;20029;-75
2022/10/21 15:11:03;;;;;;;6.40;1.65;;;;;;;;;;5021206;28;20099;-75
2022/10/21 15:13:56;;;;;;;5.78;2.13;;;;;;;;;;5031239;28;20492;-77
2022/10/21 15:16:52;;;;;;;4.70;1.63;;;;;;;;;;5015064;28;20086;-75
2022/10/21 15:19:42;;;;;;;6.07;1.90;;;;;;;;;;5030285;28;20736;-76
2022/10/21 15:22:36;;;;;;;4.88;1.65;;;;;;;;;;5031502;28;20025;-75
2022/10/21 15:25:22;;;;;;;3.83;1.50;;;;;;;;;;5027584;28;20824;-76
2022/10/21 15:28:09;;;;;;;5.22;1.50;;;;;;;;;;5016818;28;20041;-73
2022/10/21 15:30:54;;;;;;;4.93;1.63;;;;;;;;;;5021372;28;20044;-76
2022/10/21 15:33:40;;;;;;;3.90;1.55;;;;;;;;;;5020379;28;20032;-76
2022/10/21 15:36:25;;;;;;;3.88;1.83;;;;;;;;;;5034042;28;20498;-77
2022/10/21 15:39:10;;;;;;;2.08;1.20;;;;;;;;;;5028911;28;20029;-76
2022/10/21 15:41:57;;;;;;;4.30;1.58;;;;;;;;;;5033735;28;20037;-76
2022/10/21 15:44:46;;;;;;;4.85;1.88;;;;;;;;;;5031030;28;20025;-77
2022/10/21 15:47:31;;;;;;;9.18;1.50;;;;;;;;;;5021126;28;20120;-76
2022/10/21 15:50:17;;;;;;;8.20;3.00;;;;;;;;;;5014513;28;20032;-75
2022/10/21 15:53:02;;;;;;;4.13;1.45;;;;;;;;;;5033841;28;20032;-77
2022/10/21 15:55:48;;;;;;;10.77;1.90;;;;;;;;;;5040982;28;20042;-75
2022/10/21 15:58:33;;;;;;;8.20;1.83;;;;;;;;;;5009504;28;20464;-76
2022/10/21 16:01:18;;;;;;;5.00;1.80;;;;;;;;;;5029810;28;20033;-75
2022/10/21 16:04:11;;;;;;;6.32;1.73;;;;;;;;;;5024517;28;20093;-74
2022/10/21 16:06:57;;;;;;;7.85;1.60;;;;;;;;;;5032241;28;20049;-75
2022/10/21 16:09:42;;;;;;;5.05;1.40;;;;;;;;;;5027941;28;20025;-75
2022/10/21 16:12:27;;;;;;;3.95;1.30;;;;;;;;;;5020188;28;20039;-75
2022/10/21 16:15:13;;;;;;;6.78;1.70;;;;;;;;;;5015142;28;20661;-75
2022/10/21 16:17:58;;;;;;;9.43;1.60;;;;;;;;;;5023924;28;20029;-75
2022/10/21 16:20:44;;;;;;;8.10;1.50;;;;;;;;;;5018803;28;20667;-74
2022/10/21 16:23:30;;;;;;;8.38;1.67;;;;;;;;;;5034435;28;20040;-75
2022/10/21 16:26:18;;;;;;;6.50;1.30;;;;;;;;;;5026279;28;20383;-76
2022/10/21 16:29:04;;;;;;;5.25;1.55;;;;;;;;;;5033548;28;20090;-74
2022/10/21 16:31:49;;;;;;;13.55;2.30;;;;;;;;;;5029376;28;20025;-76
2022/10/21 16:34:35;;;;;;;6.63;1.67;;;;;;;;;;5034262;28;20033;-75
2022/10/21 16:37:22;;;;;;;7.53;2.45;;;;;;;;;;5033547;28;20045;-78